Time;durP1;ratioP1;P1;durP2;ratioP2;P2;SDS_P1;SDS_P2;PMS_P1;PMS_P2;Temp;Humidity;BMP_temperature;BMP_pressure;BME280_temperature;BME280_humidity;BME280_pressure;Samples;Min_cycle;Max_cycle;Signal;HPM_P1;HPM_P2
2022/03/31 00:00:29;;;;;;;5.35;4.05;;;5.90;99.90;;;;;;5058133;28;20029;-92
2022/03/31 00:02:56;;;;;;;6.93;3.92;;;5.90;99.90;;;;;;5060045;28;20053;-92
2022/03/31 00:05:22;;;;;;;6.70;5.10;;;5.90;99.90;;;;;;5075958;28;20044;-87
2022/03/31 00:07:54;;;;;;;6.35;4.20;;;5.90;99.90;;;;;;5040107;28;20044;-91
2022/03/31 00:10:36;;;;;;;9.82;5.07;;;5.80;99.90;;;;;;5056471;28;20032;-91
2022/03/31 00:13:06;;;;;;;6.80;4.40;;;5.80;99.90;;;;;;5053391;28;20028;-88
2022/03/31 00:15:32;;;;;;;7.43;5.05;;;5.80;99.90;;;;;;5054536;28;20092;-90
2022/03/31 00:18:00;;;;;;;6.78;4.65;;;5.80;99.90;;;;;;5071003;28;20025;-93
2022/03/31 00:33:55;;;;;;;6.78;5.03;;;5.70;99.90;;;;;;5067482;28;20079;-90
2022/03/31 00:36:20;;;;;;;7.88;5.32;;;5.60;99.90;;;;;;5052343;28;20021;-90
2022/03/31 00:41:38;;;;;;;8.02;6.03;;;5.50;99.90;;;;;;5065134;28;20071;-89
2022/03/31 00:44:05;;;;;;;8.50;6.10;;;5.50;99.90;;;;;;5042463;28;20216;-88
2022/03/31 00:46:31;;;;;;;7.68;5.70;;;5.40;99.90;;;;;;5059329;28;20048;-88
2022/03/31 00:49:01;;;;;;;9.27;6.55;;;5.40;99.90;;;;;;5040487;28;20021;-87
2022/03/31 00:51:29;;;;;;;9.00;6.57;;;5.30;99.90;;;;;;5041166;28;20049;-89
2022/03/31 00:53:56;;;;;;;7.93;6.32;;;5.30;99.90;;;;;;5040715;28;20108;-87
2022/03/31 00:56:24;;;;;;;8.13;6.82;;;5.20;99.90;;;;;;5057782;28;20017;-85
2022/03/31 00:58:51;;;;;;;10.20;6.78;;;5.20;99.90;;;;;;5041298;28;20048;-86
2022/03/31 01:01:18;;;;;;;8.85;6.40;;;5.20;99.90;;;;;;5044197;28;20079;-89
2022/03/31 01:03:44;;;;;;;7.53;6.18;;;5.20;99.90;;;;;;5057871;28;20065;-89
2022/03/31 01:06:10;;;;;;;9.27;6.40;;;5.20;99.90;;;;;;5039202;28;20025;-90
2022/03/31 01:08:36;;;;;;;8.20;6.55;;;5.10;99.90;;;;;;5057417;28;20021;-89
2022/03/31 01:11:01;;;;;;;9.68;6.45;;;5.10;99.90;;;;;;5041181;28;20114;-87
2022/03/31 01:13:27;;;;;;;9.68;6.50;;;5.10;99.90;;;;;;5040681;28;20018;-87
2022/03/31 01:15:54;;;;;;;9.05;6.65;;;5.10;99.90;;;;;;5039401;28;20032;-88
2022/03/31 01:18:20;;;;;;;10.00;6.55;;;5.00;99.90;;;;;;5039110;28;20021;-89
2022/03/31 01:20:46;;;;;;;9.52;6.20;;;5.10;99.90;;;;;;5056951;28;20025;-88
2022/03/31 01:23:14;;;;;;;8.85;6.88;;;5.00;99.90;;;;;;5057337;28;20056;-90
2022/03/31 01:25:40;;;;;;;8.23;6.43;;;5.00;99.90;;;;;;5042888;28;20032;-87
2022/03/31 01:28:06;;;;;;;10.07;6.90;;;5.00;99.90;;;;;;5042637;28;20068;-88
2022/03/31 01:30:32;;;;;;;10.82;6.57;;;4.90;99.90;;;;;;5058750;28;20025;-88
2022/03/31 01:32:58;;;;;;;8.23;6.35;;;4.90;99.90;;;;;;5043384;28;20028;-87
2022/03/31 01:35:24;;;;;;;8.02;5.82;;;4.90;99.90;;;;;;5065709;28;20101;-87
2022/03/31 01:37:49;;;;;;;8.57;7.05;;;4.90;99.90;;;;;;5047231;28;20117;-88
2022/03/31 01:40:16;;;;;;;9.55;6.70;;;4.90;99.90;;;;;;5045992;28;20028;-89
2022/03/31 01:42:43;;;;;;;8.20;6.40;;;4.90;99.90;;;;;;5041049;28;20083;-87
2022/03/31 01:45:11;;;;;;;8.68;6.20;;;4.90;99.90;;;;;;5039375;28;20028;-89
2022/03/31 01:47:37;;;;;;;8.15;6.00;;;4.90;99.90;;;;;;5038382;28;20029;-89
2022/03/31 01:50:04;;;;;;;9.70;5.78;;;4.90;99.90;;;;;;5059000;28;20021;-89
2022/03/31 01:52:31;;;;;;;8.43;4.65;;;4.90;99.90;;;;;;5060262;28;20371;-88
2022/03/31 01:54:57;;;;;;;6.93;4.47;;;4.90;99.90;;;;;;5046878;28;20021;-85
2022/03/31 01:57:23;;;;;;;5.25;3.92;;;4.80;99.90;;;;;;5047905;28;20028;-85
2022/03/31 01:59:52;;;;;;;6.25;4.38;;;4.80;99.90;;;;;;5045402;28;20055;-89
2022/03/31 02:02:18;;;;;;;6.00;3.92;;;4.80;99.90;;;;;;5063626;28;20054;-87
2022/03/31 02:04:44;;;;;;;6.00;3.75;;;4.80;99.90;;;;;;5041795;28;20115;-89
2022/03/31 02:07:10;;;;;;;4.53;3.30;;;4.70;99.90;;;;;;5042885;28;20096;-86
2022/03/31 02:09:37;;;;;;;4.68;3.30;;;4.70;99.90;;;;;;5029007;28;20048;-90
2022/03/31 02:12:04;;;;;;;4.50;2.90;;;4.70;99.90;;;;;;5041988;28;20490;-88
2022/03/31 02:14:33;;;;;;;6.10;3.55;;;4.70;99.90;;;;;;5061081;28;20028;-88
2022/03/31 02:16:58;;;;;;;4.20;3.17;;;4.70;99.90;;;;;;5041441;28;20056;-89
2022/03/31 02:19:25;;;;;;;4.50;3.03;;;4.60;99.90;;;;;;5059519;28;20025;-88
2022/03/31 02:21:50;;;;;;;5.13;3.03;;;4.60;99.90;;;;;;5043252;28;20045;-88
2022/03/31 02:24:17;;;;;;;4.32;3.20;;;4.50;99.90;;;;;;5060567;28;20033;-86
2022/03/31 02:26:51;;;;;;;3.97;2.92;;;4.50;99.90;;;;;;5029135;28;20033;-84
2022/03/31 02:31:54;;;;;;;4.57;2.97;;;4.30;99.90;;;;;;5072998;23;20061;-86
2022/03/31 02:34:20;;;;;;;4.03;2.78;;;4.30;99.90;;;;;;5064953;28;20093;-86
2022/03/31 02:36:46;;;;;;;3.95;2.47;;;4.20;99.90;;;;;;5046743;28;20018;-84
2022/03/31 02:39:14;;;;;;;3.78;2.35;;;4.20;99.90;;;;;;5064447;28;20013;-85
2022/03/31 02:41:43;;;;;;;3.95;2.90;;;4.30;99.90;;;;;;5064907;28;20075;-87
2022/03/31 02:44:08;;;;;;;3.83;2.20;;;4.20;99.90;;;;;;5064367;28;20045;-87
2022/03/31 02:46:34;;;;;;;3.45;2.45;;;4.30;99.90;;;;;;5030203;28;20052;-85
2022/03/31 02:49:00;;;;;;;3.00;2.22;;;4.20;99.90;;;;;;5064012;28;20032;-87
2022/03/31 02:51:26;;;;;;;3.30;1.95;;;4.20;99.90;;;;;;5062121;28;20017;-88
2022/03/31 02:56:37;;;;;;;3.78;2.00;;;4.20;99.90;;;;;;5058608;28;20167;-87
2022/03/31 02:59:13;;;;;;;2.75;1.77;;;4.10;99.90;;;;;;5056494;28;20032;-87
2022/03/31 03:01:38;;;;;;;2.78;1.60;;;4.10;99.90;;;;;;5040022;28;20033;-89
2022/03/31 03:04:08;;;;;;;2.65;1.80;;;4.10;99.90;;;;;;5039179;28;20047;-90
2022/03/31 03:06:33;;;;;;;2.15;1.55;;;4.20;99.90;;;;;;5042450;28;20096;-86
2022/03/31 03:09:01;;;;;;;2.00;1.48;;;4.10;99.90;;;;;;5065572;28;20048;-84
2022/03/31 03:11:38;;;;;;;2.00;1.45;;;4.10;99.90;;;;;;5031880;28;20023;-84
2022/03/31 03:14:12;;;;;;;2.03;1.60;;;4.00;99.90;;;;;;5048390;28;20155;-83
2022/03/31 03:16:39;;;;;;;1.70;1.35;;;3.90;99.90;;;;;;5067362;28;20028;-84
2022/03/31 03:19:05;;;;;;;1.67;1.08;;;3.90;99.90;;;;;;5035603;28;20025;-84
2022/03/31 03:21:31;;;;;;;2.22;1.60;;;3.90;99.90;;;;;;5069981;28;20031;-83
2022/03/31 03:23:57;;;;;;;1.92;1.40;;;3.90;99.90;;;;;;5051965;28;20033;-84
2022/03/31 03:26:22;;;;;;;2.42;1.55;;;3.90;99.90;;;;;;5070586;28;20028;-84
2022/03/31 03:28:49;;;;;;;2.78;1.67;;;3.90;99.90;;;;;;5053256;28;20025;-84
2022/03/31 03:31:17;;;;;;;3.17;1.65;;;3.80;99.90;;;;;;5049975;28;20060;-84
2022/03/31 03:33:43;;;;;;;1.42;1.20;;;3.80;99.90;;;;;;5033948;28;20060;-84
2022/03/31 03:36:11;;;;;;;2.00;1.38;;;3.80;99.90;;;;;;5050746;28;20033;-84
2022/03/31 03:38:41;;;;;;;2.10;1.30;;;3.70;99.90;;;;;;5056980;28;20022;-85
2022/03/31 03:41:10;;;;;;;2.95;1.55;;;3.80;99.90;;;;;;5057183;28;20018;-84
2022/03/31 03:43:42;;;;;;;1.63;1.13;;;3.70;99.90;;;;;;5056773;28;20048;-85
2022/03/31 03:46:08;;;;;;;1.85;1.23;;;3.70;99.90;;;;;;5058577;28;20028;-85
2022/03/31 03:48:41;;;;;;;1.50;1.10;;;3.70;99.90;;;;;;5057448;28;20029;-85
2022/03/31 03:51:09;;;;;;;1.63;1.17;;;3.60;99.90;;;;;;5060518;28;20029;-85
2022/03/31 03:53:35;;;;;;;1.75;1.00;;;3.60;99.90;;;;;;5058953;28;20060;-87
2022/03/31 03:56:00;;;;;;;2.13;1.13;;;3.60;99.90;;;;;;5060399;28;20010;-95
2022/03/31 03:58:29;;;;;;;2.22;1.30;;;3.60;99.90;;;;;;5060319;28;20051;-93
2022/03/31 04:00:54;;;;;;;1.95;1.33;;;3.60;99.90;;;;;;5059777;28;20014;-92
2022/03/31 04:03:20;;;;;;;1.70;1.23;;;3.60;99.90;;;;;;5060174;28;20045;-94
2022/03/31 04:05:46;;;;;;;4.93;1.40;;;3.60;99.90;;;;;;5056940;28;20080;-88
2022/03/31 04:08:13;;;;;;;2.08;1.40;;;3.60;99.90;;;;;;5052994;28;20032;-88
2022/03/31 04:10:39;;;;;;;1.73;1.20;;;3.60;99.90;;;;;;5047994;28;20157;-89
2022/03/31 04:13:05;;;;;;;2.92;1.65;;;3.60;99.90;;;;;;5046304;28;20021;-89
2022/03/31 04:15:32;;;;;;;2.30;1.60;;;3.50;99.90;;;;;;5028563;28;20029;-88
2022/03/31 04:17:57;;;;;;;3.47;1.73;;;3.40;99.90;;;;;;5042983;28;20022;-87
2022/03/31 04:20:24;;;;;;;3.03;1.40;;;3.40;99.90;;;;;;5042687;28;20049;-85
2022/03/31 04:22:51;;;;;;;1.75;1.20;;;3.40;99.90;;;;;;5047091;28;20096;-84
2022/03/31 04:25:18;;;;;;;2.40;1.50;;;3.40;99.90;;;;;;5047071;28;20104;-85
2022/03/31 04:27:44;;;;;;;1.85;1.23;;;3.40;99.90;;;;;;5045970;28;20032;-88
2022/03/31 04:30:11;;;;;;;1.77;1.40;;;3.40;99.90;;;;;;5047075;28;20033;-87
2022/03/31 04:32:38;;;;;;;2.00;1.30;;;3.40;99.90;;;;;;5040609;28;20155;-89
2022/03/31 04:35:07;;;;;;;2.25;1.17;;;3.40;99.90;;;;;;5041621;28;20427;-86
2022/03/31 04:37:34;;;;;;;1.20;1.00;;;3.50;99.90;;;;;;5047279;28;20056;-87
2022/03/31 04:40:10;;;;;;;1.40;0.95;;;3.50;99.90;;;;;;5046198;28;20017;-87
2022/03/31 04:42:36;;;;;;;1.52;0.98;;;3.50;99.90;;;;;;5038170;28;20053;-92
2022/03/31 04:45:04;;;;;;;1.17;0.90;;;3.50;99.90;;;;;;5042767;28;20025;-91
2022/03/31 04:47:30;;;;;;;1.52;1.05;;;3.50;99.90;;;;;;5025976;28;20029;-90
2022/03/31 04:49:56;;;;;;;1.23;0.98;;;3.50;99.90;;;;;;5046600;28;20072;-86
2022/03/31 04:52:22;;;;;;;1.20;0.90;;;3.50;99.90;;;;;;5080124;23;20057;-87
2022/03/31 04:54:47;;;;;;;1.20;0.80;;;3.50;99.90;;;;;;5063981;23;20045;-86
2022/03/31 04:57:14;;;;;;;1.42;0.98;;;3.50;99.90;;;;;;5027779;28;20029;-85
2022/03/31 04:59:41;;;;;;;1.65;1.20;;;3.50;99.90;;;;;;5025590;28;20384;-84
2022/03/31 05:02:07;;;;;;;2.03;1.42;;;3.50;99.90;;;;;;5043932;28;20017;-88
2022/03/31 05:04:40;;;;;;;1.80;1.45;;;3.50;99.90;;;;;;5040790;28;20026;-89
2022/03/31 05:07:06;;;;;;;1.80;1.23;;;3.40;99.90;;;;;;5038991;28;20076;-86
2022/03/31 05:09:32;;;;;;;2.10;1.48;;;3.40;99.90;;;;;;5046482;28;20089;-88
2022/03/31 05:11:58;;;;;;;2.05;1.40;;;3.40;99.90;;;;;;5040216;28;20037;-86
2022/03/31 05:14:23;;;;;;;2.17;1.40;;;3.40;99.90;;;;;;5042217;28;20606;-89
2022/03/31 05:16:55;;;;;;;1.95;1.40;;;3.40;99.90;;;;;;5025587;28;20471;-91
2022/03/31 05:19:20;;;;;;;1.90;1.30;;;3.30;99.90;;;;;;5042548;28;20029;-88
2022/03/31 05:21:46;;;;;;;2.42;1.48;;;3.30;99.90;;;;;;5022791;28;20176;-88
2022/03/31 05:24:12;;;;;;;3.15;1.45;;;3.20;99.90;;;;;;5039321;28;20137;-88
2022/03/31 05:26:38;;;;;;;1.40;1.10;;;3.10;99.90;;;;;;5037964;28;20093;-89
2022/03/31 05:29:04;;;;;;;2.05;1.20;;;3.10;99.90;;;;;;5038354;28;20511;-91
2022/03/31 05:31:29;;;;;;;2.33;1.40;;;3.00;99.90;;;;;;5036083;28;20388;-89
2022/03/31 05:33:55;;;;;;;2.53;1.67;;;2.90;99.90;;;;;;5036156;28;20021;-89
2022/03/31 05:36:20;;;;;;;2.10;1.50;;;2.90;99.90;;;;;;5035614;28;20364;-90
2022/03/31 05:38:46;;;;;;;1.98;1.40;;;2.80;99.90;;;;;;5035731;28;20045;-89
2022/03/31 05:41:12;;;;;;;1.83;1.35;;;2.80;99.90;;;;;;5033516;28;20443;-88
2022/03/31 05:43:37;;;;;;;2.83;1.77;;;2.80;99.90;;;;;;5035910;28;20037;-88
2022/03/31 05:46:03;;;;;;;2.13;1.67;;;2.80;99.90;;;;;;5035093;28;20022;-88
2022/03/31 05:48:29;;;;;;;2.47;1.92;;;2.70;99.90;;;;;;5033978;28;20021;-90
2022/03/31 05:50:54;;;;;;;1.75;1.55;;;2.60;99.90;;;;;;5033613;28;20120;-89
2022/03/31 05:53:20;;;;;;;2.17;1.50;;;2.60;99.90;;;;;;5034612;28;20025;-91
2022/03/31 05:55:45;;;;;;;1.70;1.33;;;2.60;99.90;;;;;;5043156;28;20336;-89
2022/03/31 05:58:11;;;;;;;3.22;1.67;;;2.50;99.90;;;;;;5037426;28;20025;-87
2022/03/31 06:00:37;;;;;;;2.70;1.70;;;2.40;99.90;;;;;;5037624;28;20029;-89
2022/03/31 06:03:03;;;;;;;2.53;1.90;;;2.40;99.90;;;;;;5055495;28;20029;-89
2022/03/31 06:05:28;;;;;;;2.50;1.73;;;2.30;99.90;;;;;;5037691;28;20459;-90
2022/03/31 06:07:54;;;;;;;2.80;1.92;;;2.20;99.90;;;;;;5037662;28;20119;-90
2022/03/31 06:10:20;;;;;;;2.80;2.05;;;2.20;99.90;;;;;;5037580;28;20009;-89
2022/03/31 06:12:46;;;;;;;2.58;1.80;;;2.20;99.90;;;;;;5038027;28;20088;-89
2022/03/31 06:15:12;;;;;;;2.85;1.83;;;2.20;99.90;;;;;;5038285;28;20490;-89
2022/03/31 06:17:42;;;;;;;2.78;1.60;;;2.20;99.90;;;;;;5038475;28;20037;-90
2022/03/31 06:20:10;;;;;;;2.38;1.80;;;2.30;99.90;;;;;;5038230;28;20078;-89
2022/03/31 06:22:35;;;;;;;2.10;1.50;;;2.20;99.90;;;;;;5037896;28;20064;-89
2022/03/31 06:25:01;;;;;;;2.38;1.52;;;2.30;99.90;;;;;;5038031;28;20067;-88
2022/03/31 06:27:28;;;;;;;2.78;1.75;;;2.30;99.90;;;;;;5039686;28;20056;-89
2022/03/31 06:29:54;;;;;;;2.30;1.65;;;2.30;99.90;;;;;;5040500;28;20119;-91
2022/03/31 06:32:20;;;;;;;1.80;1.40;;;2.30;99.90;;;;;;5039828;28;20041;-87
2022/03/31 06:34:46;;;;;;;1.80;1.45;;;2.30;99.90;;;;;;5040307;28;20049;-88
2022/03/31 06:37:13;;;;;;;1.85;1.40;;;2.20;99.90;;;;;;5040698;28;20067;-87
2022/03/31 06:39:39;;;;;;;2.60;2.08;;;2.20;99.90;;;;;;5064783;28;20017;-85
2022/03/31 06:42:05;;;;;;;2.08;1.42;;;2.20;99.90;;;;;;5042876;28;20082;-89
2022/03/31 06:44:32;;;;;;;3.28;1.73;;;2.20;99.90;;;;;;5058227;28;20029;-90
2022/03/31 06:46:58;;;;;;;1.90;1.20;;;2.20;99.90;;;;;;5056883;28;20085;-90
2022/03/31 06:49:24;;;;;;;2.00;1.33;;;2.30;99.90;;;;;;5040133;28;20507;-89
2022/03/31 06:51:51;;;;;;;1.70;1.30;;;2.40;99.90;;;;;;5044125;28;20538;-88
2022/03/31 06:54:18;;;;;;;1.52;1.00;;;2.40;99.90;;;;;;5046771;28;20029;-88
2022/03/31 06:56:46;;;;;;;1.70;1.35;;;2.50;99.90;;;;;;5048410;28;20092;-85
2022/03/31 06:59:12;;;;;;;1.80;1.30;;;2.50;99.90;;;;;;5050191;28;20017;-88
2022/03/31 07:01:38;;;;;;;2.30;1.45;;;2.50;99.90;;;;;;5064824;28;20033;-90
2022/03/31 07:04:06;;;;;;;2.30;1.73;;;2.60;99.90;;;;;;5047200;28;20067;-86
2022/03/31 07:06:35;;;;;;;2.00;1.48;;;2.60;99.90;;;;;;5072147;28;20069;-89
2022/03/31 07:09:01;;;;;;;2.35;1.40;;;2.70;99.90;;;;;;5050463;28;20032;-89
2022/03/31 07:11:26;;;;;;;1.88;1.38;;;2.70;99.90;;;;;;5070973;28;20025;-87
2022/03/31 07:13:54;;;;;;;1.85;1.40;;;2.80;99.90;;;;;;5051324;28;20017;-86
2022/03/31 08:13:57;;;;;;;2.95;2.17;;;3.10;99.90;;;;;;5175435;22;20060;-86
2022/03/31 08:16:26;;;;;;;2.72;2.38;;;3.10;99.90;;;;;;5065245;28;20033;-88
2022/03/31 08:18:51;;;;;;;3.58;1.98;;;3.10;99.90;;;;;;5050005;28;20033;-84
2022/03/31 08:21:17;;;;;;;2.83;1.80;;;3.10;99.90;;;;;;5065709;28;20040;-85
2022/03/31 08:23:43;;;;;;;2.17;1.75;;;3.10;99.90;;;;;;5067496;28;20044;-86
2022/03/31 08:26:08;;;;;;;2.70;1.98;;;3.20;99.90;;;;;;5046587;28;20036;-84
2022/03/31 08:28:36;;;;;;;3.50;2.30;;;3.20;99.90;;;;;;5032056;28;20040;-84
2022/03/31 08:31:01;;;;;;;3.15;2.00;;;3.20;99.90;;;;;;5042404;23;20125;-84
2022/03/31 08:33:31;;;;;;;2.38;1.83;;;3.30;99.90;;;;;;5061412;23;20097;-84
2022/03/31 08:36:13;;;;;;;2.28;1.95;;;3.30;99.90;;;;;;4967746;28;20377;-88
2022/03/31 08:41:19;;;;;;;2.20;1.83;;;3.30;99.90;;;;;;5086525;23;20310;-91
2022/03/31 08:43:45;;;;;;;2.45;2.00;;;3.30;99.90;;;;;;5041858;28;20041;-89
2022/03/31 08:46:11;;;;;;;2.20;1.80;;;3.30;99.90;;;;;;5033957;28;20060;-87
2022/03/31 08:48:37;;;;;;;2.25;1.63;;;3.30;99.90;;;;;;5038586;28;20029;-85
2022/03/31 08:51:04;;;;;;;2.70;1.90;;;3.40;99.90;;;;;;5068499;28;20037;-85
2022/03/31 08:53:32;;;;;;;2.53;1.90;;;3.30;99.90;;;;;;5030840;28;20022;-84
2022/03/31 08:55:59;;;;;;;3.15;1.95;;;3.30;99.90;;;;;;5027153;28;20033;-84
2022/03/31 08:58:26;;;;;;;2.58;1.90;;;3.30;99.90;;;;;;5057308;28;20041;-84
2022/03/31 09:00:53;;;;;;;2.45;2.08;;;3.30;99.90;;;;;;5012439;28;20048;-84
2022/03/31 09:03:20;;;;;;;2.05;1.52;;;3.30;99.90;;;;;;5029939;28;20040;-85
2022/03/31 09:05:52;;;;;;;2.50;2.00;;;3.40;99.90;;;;;;5052890;28;20079;-85
2022/03/31 09:08:18;;;;;;;2.53;2.00;;;3.40;99.90;;;;;;5049883;28;20059;-85
2022/03/31 09:10:52;;;;;;;2.30;1.83;;;3.40;99.90;;;;;;5050196;28;20480;-84
2022/03/31 09:13:30;;;;;;;2.63;1.80;;;3.40;99.90;;;;;;5032202;28;20033;-85
2022/03/31 09:16:01;;;;;;;2.38;1.98;;;3.50;99.90;;;;;;5047928;28;20029;-85
2022/03/31 09:18:28;;;;;;;2.38;2.00;;;3.50;99.90;;;;;;5058053;28;20048;-85
2022/03/31 09:20:57;;;;;;;2.53;2.00;;;3.50;99.90;;;;;;5056090;28;20037;-88
2022/03/31 09:23:41;;;;;;;2.45;1.95;;;3.60;99.90;;;;;;5044838;28;20479;-89
2022/03/31 09:26:12;;;;;;;2.72;2.20;;;3.60;99.90;;;;;;5056260;28;20030;-88
2022/03/31 09:28:38;;;;;;;2.10;1.83;;;3.60;99.90;;;;;;5011570;28;20053;-84
2022/03/31 09:31:12;;;;;;;2.20;1.90;;;3.60;99.90;;;;;;5046394;28;20036;-85
2022/03/31 09:33:53;;;;;;;2.83;2.05;;;3.60;99.90;;;;;;5048761;28;20149;-85
2022/03/31 09:36:22;;;;;;;2.58;2.00;;;3.60;99.90;;;;;;5066053;28;20029;-85
2022/03/31 09:39:03;;;;;;;2.42;2.13;;;3.60;99.90;;;;;;5066738;28;20037;-85
2022/03/31 09:41:34;;;;;;;3.50;2.65;;;3.60;99.90;;;;;;5058697;28;20052;-91
2022/03/31 09:44:04;;;;;;;2.97;2.28;;;3.60;99.90;;;;;;5049415;28;20064;-86
2022/03/31 09:46:41;;;;;;;2.83;2.17;;;3.60;99.90;;;;;;5063330;28;20088;-85
2022/03/31 09:54:23;;;;;;;3.88;2.20;;;3.70;99.90;;;;;;4911163;22;20083;-85
2022/03/31 09:56:49;;;;;;;3.20;2.45;;;3.70;99.90;;;;;;5078086;28;20033;-84
2022/03/31 09:59:16;;;;;;;3.40;2.85;;;3.70;99.90;;;;;;5070405;28;20032;-84
2022/03/31 10:01:43;;;;;;;3.40;2.70;;;3.70;99.90;;;;;;5083845;28;20024;-85
2022/03/31 10:04:11;;;;;;;3.20;2.53;;;3.70;99.90;;;;;;5056108;28;20068;-85
2022/03/31 10:06:42;;;;;;;3.50;2.55;;;3.70;99.90;;;;;;5085354;28;20032;-85
2022/03/31 10:09:10;;;;;;;3.75;2.40;;;3.70;99.90;;;;;;5085178;28;20025;-84
2022/03/31 10:11:40;;;;;;;3.80;2.83;;;3.80;99.90;;;;;;5066022;28;20129;-85
2022/03/31 10:14:29;;;;;;;4.30;2.63;;;3.80;99.90;;;;;;5048239;28;20021;-85
2022/03/31 10:19:37;;;;;;;2.83;2.50;;;3.80;99.90;;;;;;5108769;23;20051;-84
2022/03/31 10:25:11;;;;;;;3.75;2.97;;;3.90;99.90;;;;;;5065975;28;20040;-82
2022/03/31 10:27:40;;;;;;;3.75;3.10;;;4.00;99.90;;;;;;5042425;28;20491;-85
2022/03/31 10:30:11;;;;;;;2.90;2.45;;;4.00;99.90;;;;;;5044830;28;20057;-85
2022/03/31 10:32:48;;;;;;;3.22;2.75;;;4.00;99.90;;;;;;5173017;22;20056;-89
2022/03/31 10:35:29;;;;;;;3.35;2.60;;;4.10;99.90;;;;;;5087165;28;20036;-85
2022/03/31 10:37:57;;;;;;;3.40;2.60;;;4.10;99.90;;;;;;5078266;28;20033;-86
2022/03/31 10:40:40;;;;;;;3.60;2.88;;;4.20;99.90;;;;;;5082628;28;20418;-85
2022/03/31 10:43:17;;;;;;;3.00;2.50;;;4.20;99.90;;;;;;5090668;28;20043;-84
2022/03/31 10:45:43;;;;;;;3.40;2.30;;;4.30;99.90;;;;;;5068197;28;20074;-87
2022/03/31 10:48:20;;;;;;;3.22;2.28;;;4.40;99.90;;;;;;5072999;23;20062;-84
2022/03/31 10:50:59;;;;;;;3.03;2.67;;;4.40;99.90;;;;;;5076877;28;20039;-85
2022/03/31 10:53:29;;;;;;;4.20;2.65;;;4.40;99.90;;;;;;5082119;28;20088;-86
2022/03/31 10:55:55;;;;;;;3.05;2.63;;;4.40;99.90;;;;;;5076703;28;20024;-88
2022/03/31 10:58:26;;;;;;;3.25;2.65;;;4.40;99.90;;;;;;5068199;28;20063;-88
2022/03/31 11:01:03;;;;;;;4.18;3.10;;;4.40;99.90;;;;;;5064899;28;20512;-87
2022/03/31 11:03:28;;;;;;;3.45;2.95;;;4.40;99.90;;;;;;5065672;28;20039;-86
2022/03/31 11:06:00;;;;;;;3.38;2.63;;;4.40;99.90;;;;;;5077132;28;20024;-85
2022/03/31 11:08:26;;;;;;;2.92;2.38;;;4.50;99.90;;;;;;5066837;28;20108;-88
2022/03/31 11:10:53;;;;;;;4.45;3.20;;;4.50;99.90;;;;;;5075382;28;20048;-84
2022/03/31 11:13:33;;;;;;;3.58;2.72;;;4.50;99.90;;;;;;5084616;28;20087;-83
2022/03/31 11:16:01;;;;;;;3.33;2.45;;;4.50;99.90;;;;;;5081726;28;20051;-85
2022/03/31 11:18:27;;;;;;;3.00;2.30;;;4.40;99.90;;;;;;5081701;28;20036;-85
2022/03/31 11:21:02;;;;;;;2.50;1.92;;;4.40;99.90;;;;;;5083489;28;20043;-84
2022/03/31 11:23:30;;;;;;;3.00;2.30;;;4.40;99.90;;;;;;5083721;28;20044;-83
2022/03/31 11:25:57;;;;;;;2.47;2.13;;;4.40;99.90;;;;;;5085004;28;20029;-85
2022/03/31 11:28:29;;;;;;;2.30;2.00;;;4.40;99.90;;;;;;5034768;23;20095;-85
2022/03/31 11:30:55;;;;;;;2.70;2.17;;;4.50;99.90;;;;;;5047412;28;20021;-84
2022/03/31 11:33:22;;;;;;;2.63;2.22;;;4.50;99.90;;;;;;5047936;28;20040;-85
2022/03/31 11:35:52;;;;;;;3.60;2.67;;;4.60;99.90;;;;;;5045852;28;20116;-86
2022/03/31 11:38:19;;;;;;;2.58;2.15;;;4.60;99.90;;;;;;5066862;28;20051;-86
2022/03/31 11:40:49;;;;;;;2.35;1.90;;;4.60;99.90;;;;;;5052217;28;20017;-85
2022/03/31 11:43:18;;;;;;;2.00;1.77;;;4.60;99.90;;;;;;5064965;28;20029;-88
2022/03/31 11:45:49;;;;;;;2.10;1.67;;;4.60;99.90;;;;;;5030130;28;20033;-87
2022/03/31 11:48:33;;;;;;;1.90;1.42;;;4.50;99.90;;;;;;5068910;28;20028;-84
2022/03/31 11:51:00;;;;;;;3.03;1.50;;;4.50;99.90;;;;;;5068331;28;20040;-86
2022/03/31 11:53:47;;;;;;;2.20;1.77;;;4.60;99.90;;;;;;5049358;28;20033;-83
2022/03/31 11:56:22;;;;;;;3.30;1.40;;;4.50;99.90;;;;;;5049858;28;20040;-89
2022/03/31 11:58:49;;;;;;;1.63;1.30;;;4.40;99.90;;;;;;5063172;28;20116;-84
2022/03/31 12:01:30;;;;;;;1.75;1.60;;;4.40;99.90;;;;;;5045531;28;20029;-83
2022/03/31 12:03:56;;;;;;;2.22;1.70;;;4.30;99.90;;;;;;5034559;28;20033;-85
2022/03/31 12:06:22;;;;;;;2.33;1.70;;;4.20;99.90;;;;;;5064013;28;20036;-86
2022/03/31 12:08:48;;;;;;;1.80;1.50;;;4.20;99.90;;;;;;5029644;28;20072;-85
2022/03/31 12:11:14;;;;;;;2.30;1.65;;;4.20;99.90;;;;;;5042940;28;20025;-86
2022/03/31 12:13:49;;;;;;;1.58;1.45;;;4.20;99.90;;;;;;5061324;28;20541;-84
2022/03/31 12:16:15;;;;;;;2.50;1.55;;;4.10;99.90;;;;;;5043776;28;20064;-86
2022/03/31 12:18:43;;;;;;;1.25;1.00;;;4.10;99.90;;;;;;5040594;28;20051;-88
2022/03/31 12:21:10;;;;;;;1.48;1.20;;;4.10;99.90;;;;;;5041080;28;20037;-87
2022/03/31 12:23:44;;;;;;;1.67;1.25;;;4.10;99.90;;;;;;5060869;28;20045;-86
2022/03/31 12:26:22;;;;;;;1.33;1.20;;;4.20;99.90;;;;;;5043251;28;20033;-88
2022/03/31 12:28:49;;;;;;;1.67;1.30;;;4.20;99.90;;;;;;5040528;28;20537;-87
2022/03/31 12:31:20;;;;;;;1.50;1.40;;;4.20;99.90;;;;;;5057216;28;20414;-88
2022/03/31 12:33:48;;;;;;;1.42;1.20;;;4.10;99.90;;;;;;5039637;28;20033;-87
2022/03/31 12:36:14;;;;;;;1.67;1.30;;;4.10;99.90;;;;;;5057276;28;20033;-89
2022/03/31 12:38:49;;;;;;;1.60;1.10;;;4.10;99.90;;;;;;5039568;28;20025;-89
2022/03/31 12:41:34;;;;;;;1.42;1.20;;;4.10;99.90;;;;;;5039174;28;20025;-87
2022/03/31 12:44:11;;;;;;;1.55;1.20;;;4.10;99.90;;;;;;5055561;28;20048;-86
2022/03/31 12:46:38;;;;;;;1.65;1.33;;;4.20;99.90;;;;;;5036793;28;20083;-88
2022/03/31 12:49:09;;;;;;;1.90;1.30;;;4.20;99.90;;;;;;5036618;28;21482;-86
2022/03/31 12:51:59;;;;;;;1.83;1.33;;;4.20;99.90;;;;;;5036297;28;20064;-87
2022/03/31 12:54:35;;;;;;;1.30;1.10;;;4.20;99.90;;;;;;5033137;28;20029;-87
2022/03/31 12:57:12;;;;;;;1.45;1.10;;;4.20;99.90;;;;;;5051724;28;20155;-84
2022/03/31 12:59:38;;;;;;;1.38;1.27;;;4.20;99.90;;;;;;5032834;28;20403;-86
2022/03/31 13:02:06;;;;;;;1.23;1.10;;;4.20;99.90;;;;;;5054292;28;20036;-89
2022/03/31 13:04:40;;;;;;;1.30;1.20;;;4.20;99.90;;;;;;5039907;28;20061;-87
2022/03/31 13:07:13;;;;;;;2.65;1.20;;;4.20;99.90;;;;;;5034424;28;20032;-86
2022/03/31 13:09:39;;;;;;;1.10;1.00;;;4.20;99.90;;;;;;5052054;28;20060;-87
2022/03/31 13:12:11;;;;;;;1.50;1.20;;;4.20;99.90;;;;;;5023426;28;20038;-89
2022/03/31 13:14:45;;;;;;;1.07;0.90;;;4.30;99.90;;;;;;5028686;28;20152;-85
2022/03/31 13:17:15;;;;;;;;;;;4.20;99.90;;;;;;5032074;28;20103;-86
2022/03/31 13:19:42;;;;;;;1.20;0.95;;;4.10;99.90;;;;;;5049869;28;19913;-85
2022/03/31 13:22:11;;;;;;;1.20;1.10;;;4.10;99.90;;;;;;5049949;28;20067;-83
2022/03/31 13:24:37;;;;;;;1.58;1.20;;;4.10;99.90;;;;;;5054155;28;20041;-86
2022/03/31 13:27:04;;;;;;;0.70;0.70;;;4.10;99.90;;;;;;5048161;28;20051;-85
2022/03/31 13:29:30;;;;;;;0.93;0.80;;;4.00;99.90;;;;;;5074683;28;20044;-88
2022/03/31 13:31:56;;;;;;;1.85;1.23;;;4.00;99.90;;;;;;5073457;28;20006;-90
2022/03/31 13:34:30;;;;;;;1.23;1.05;;;4.00;99.90;;;;;;5055938;28;20048;-85
2022/03/31 13:36:59;;;;;;;1.25;1.00;;;4.00;99.90;;;;;;5052523;28;20033;-86
2022/03/31 13:39:26;;;;;;;1.20;0.90;;;4.00;99.90;;;;;;5065652;28;20037;-86
2022/03/31 13:41:52;;;;;;;1.60;1.00;;;3.90;99.90;;;;;;5072196;28;20025;-86
2022/03/31 13:44:18;;;;;;;1.27;0.90;;;3.80;99.90;;;;;;5060149;28;20049;-85
2022/03/31 13:46:48;;;;;;;1.45;0.93;;;3.80;99.90;;;;;;5054028;28;20976;-85
2022/03/31 13:49:15;;;;;;;1.00;0.80;;;3.70;99.90;;;;;;5064266;28;20092;-85
2022/03/31 13:51:45;;;;;;;1.35;0.82;;;3.70;99.90;;;;;;5061257;28;20092;-87
2022/03/31 13:54:11;;;;;;;1.15;0.82;;;3.80;99.90;;;;;;5067454;28;20021;-86
2022/03/31 13:56:39;;;;;;;0.70;0.68;;;3.80;99.90;;;;;;5067142;28;20073;-87
2022/03/31 14:01:54;;;;;;;0.90;0.80;;;3.90;99.90;;;;;;5053002;28;20052;-85
2022/03/31 14:04:21;;;;;;;1.00;0.85;;;3.90;99.90;;;;;;5050670;28;20406;-85
2022/03/31 14:06:49;;;;;;;0.60;0.52;;;3.80;99.90;;;;;;5051977;28;20033;-84
2022/03/31 14:09:16;;;;;;;1.00;0.80;;;3.80;99.90;;;;;;5051087;28;20033;-86
2022/03/31 14:11:44;;;;;;;2.08;0.75;;;3.80;99.90;;;;;;5050022;28;20028;-86
2022/03/31 14:14:10;;;;;;;1.25;0.80;;;3.70;99.90;;;;;;5049448;28;20083;-86
2022/03/31 14:16:40;;;;;;;2.00;0.90;;;3.70;99.90;;;;;;5060125;28;20032;-87
2022/03/31 14:19:08;;;;;;;0.93;0.73;;;3.70;99.90;;;;;;5049593;28;20103;-86
2022/03/31 14:21:34;;;;;;;1.23;0.80;;;3.60;99.90;;;;;;5049479;28;20036;-86
2022/03/31 14:24:00;;;;;;;0.90;0.80;;;3.60;99.90;;;;;;5049485;28;20127;-84
2022/03/31 14:26:26;;;;;;;1.25;0.95;;;3.60;99.90;;;;;;5050110;28;20045;-85
2022/03/31 14:28:52;;;;;;;1.33;0.80;;;3.60;99.90;;;;;;5049166;28;20063;-87
2022/03/31 14:31:23;;;;;;;0.85;0.70;;;3.50;99.90;;;;;;5050312;28;20407;-84
2022/03/31 14:33:49;;;;;;;1.35;0.80;;;3.50;99.90;;;;;;5049228;28;20049;-85
2022/03/31 14:36:17;;;;;;;0.90;0.60;;;3.50;99.90;;;;;;5051360;28;20030;-84
2022/03/31 14:38:43;;;;;;;0.82;0.77;;;3.40;99.90;;;;;;5049690;28;20119;-84